Time;durP1;ratioP1;P1;durP2;ratioP2;P2;SDS_P1;SDS_P2;PMS_P1;PMS_P2;Temp;Humidity;BMP_temperature;BMP_pressure;BME280_temperature;BME280_humidity;BME280_pressure;Samples;Min_cycle;Max_cycle;Signal;HPM_P1;HPM_P2
2023/04/29 00:01:06;;;;;;;112.63;42.47;;;10.80;99.90;;;;;;4952673;28;20279;-64
2023/04/29 00:03:34;;;;;;;88.63;35.57;;;10.80;99.90;;;;;;4950103;28;20216;-64
2023/04/29 00:06:05;;;;;;;89.03;34.10;;;10.70;99.90;;;;;;4956329;28;20227;-64
2023/04/29 00:08:33;;;;;;;79.00;33.53;;;10.70;99.90;;;;;;4955140;28;20586;-64
2023/04/29 00:11:02;;;;;;;77.30;31.67;;;10.60;99.90;;;;;;4952523;28;21204;-64
2023/04/29 00:13:30;;;;;;;69.57;30.13;;;10.70;99.90;;;;;;4954525;28;20271;-66
2023/04/29 00:15:58;;;;;;;66.93;29.90;;;10.60;99.90;;;;;;4958115;28;20224;-64
2023/04/29 00:18:26;;;;;;;66.77;28.97;;;10.60;99.90;;;;;;4952488;28;20228;-64
2023/04/29 00:20:55;;;;;;;64.97;29.13;;;10.60;99.90;;;;;;4957641;28;20227;-64
2023/04/29 00:23:24;;;;;;;61.37;28.10;;;10.60;99.90;;;;;;4959316;28;20252;-64
2023/04/29 00:25:52;;;;;;;65.87;27.47;;;10.60;99.90;;;;;;4949619;28;20575;-63
2023/04/29 00:28:21;;;;;;;56.70;27.03;;;10.50;99.90;;;;;;4953074;28;20282;-64
2023/04/29 00:30:49;;;;;;;61.93;27.43;;;10.40;99.90;;;;;;4942984;28;20229;-64
2023/04/29 00:33:17;;;;;;;55.90;27.50;;;10.50;99.90;;;;;;4950438;28;20220;-64
2023/04/29 00:35:46;;;;;;;56.13;26.17;;;10.40;99.90;;;;;;4957738;28;20224;-64
2023/04/29 00:38:14;;;;;;;53.57;25.77;;;10.40;99.90;;;;;;4956143;28;20322;-65
2023/04/29 00:40:44;;;;;;;58.13;26.77;;;10.40;99.90;;;;;;4960112;28;20192;-64
2023/04/29 00:43:13;;;;;;;53.07;24.63;;;10.40;99.90;;;;;;4953452;28;20262;-64
2023/04/29 00:45:41;;;;;;;56.00;26.13;;;10.30;99.90;;;;;;4942858;28;20754;-64
2023/04/29 00:48:09;;;;;;;52.17;25.83;;;10.30;99.90;;;;;;4948856;28;20237;-64
2023/04/29 00:50:37;;;;;;;56.63;25.80;;;10.30;99.90;;;;;;4955144;28;20250;-64
2023/04/29 00:53:06;;;;;;;60.57;26.90;;;10.30;99.90;;;;;;4956738;28;20223;-64
2023/04/29 00:55:35;;;;;;;54.20;25.67;;;10.30;99.90;;;;;;4955437;28;20243;-63
2023/04/29 00:58:05;;;;;;;57.07;27.87;;;10.30;99.90;;;;;;4957178;28;20299;-64
2023/04/29 01:04:23;;;;;;;63.30;27.97;;;10.30;99.90;;;;;;5662585;23;20317;-62
2023/04/29 01:07:01;;;;;;;66.97;27.57;;;10.30;99.90;;;;;;4982719;28;20226;-62
2023/04/29 01:09:53;;;;;;;60.60;27.83;;;10.30;99.90;;;;;;4982096;28;20222;-62
2023/04/29 01:12:27;;;;;;;67.43;29.70;;;10.30;99.90;;;;;;4987339;28;20221;-62
2023/04/29 01:15:10;;;;;;;63.73;28.27;;;10.20;99.90;;;;;;4988828;28;20246;-62
2023/04/29 01:17:42;;;;;;;68.33;29.30;;;10.20;99.90;;;;;;4986282;28;20219;-62
2023/04/29 01:20:12;;;;;;;82.33;31.90;;;10.20;99.90;;;;;;4993798;28;20214;-62
2023/04/29 01:22:40;;;;;;;83.03;34.50;;;10.20;99.90;;;;;;4987848;28;20199;-62
2023/04/29 01:25:10;;;;;;;103.87;38.10;;;10.20;99.90;;;;;;4990697;28;20576;-63
2023/04/29 01:27:47;;;;;;;118.27;42.43;;;10.20;99.90;;;;;;4990603;28;20624;-62
2023/04/29 01:30:27;;;;;;;116.37;43.23;;;10.10;99.90;;;;;;4984333;28;20313;-62
2023/04/29 01:33:02;;;;;;;130.23;44.50;;;10.10;99.90;;;;;;4989389;28;20222;-62
2023/04/29 01:35:54;;;;;;;130.17;47.50;;;10.10;99.90;;;;;;4977300;28;20245;-62
2023/04/29 01:38:30;;;;;;;129.73;46.93;;;10.10;99.90;;;;;;4983527;28;20227;-62
2023/04/29 01:41:10;;;;;;;107.70;40.20;;;10.10;99.90;;;;;;4986056;28;20214;-61
2023/04/29 01:43:40;;;;;;;92.17;37.87;;;10.10;99.90;;;;;;4995222;28;20210;-62
2023/04/29 01:46:11;;;;;;;71.33;30.97;;;10.00;99.90;;;;;;4989634;28;20669;-62
2023/04/29 01:48:39;;;;;;;58.53;27.77;;;10.00;99.90;;;;;;4991073;28;20231;-62
2023/04/29 01:51:07;;;;;;;57.00;26.87;;;9.90;99.90;;;;;;4992092;28;20215;-62
2023/04/29 01:53:35;;;;;;;53.13;26.20;;;10.00;99.90;;;;;;4988694;28;20222;-62
2023/04/29 01:56:06;;;;;;;46.83;25.40;;;10.00;99.90;;;;;;4987103;28;20225;-62
2023/04/29 01:58:34;;;;;;;57.97;28.17;;;10.00;99.90;;;;;;4993296;28;20205;-62
2023/04/29 02:01:03;;;;;;;54.17;27.73;;;10.00;99.90;;;;;;4992904;28;20191;-61
2023/04/29 02:03:31;;;;;;;62.20;29.70;;;10.00;99.90;;;;;;4983169;28;20222;-61
2023/04/29 02:06:00;;;;;;;56.67;29.20;;;9.90;99.90;;;;;;4971231;28;20234;-62
2023/04/29 02:08:28;;;;;;;65.50;30.53;;;10.00;99.90;;;;;;4992520;28;20286;-62
2023/04/29 02:10:58;;;;;;;60.73;30.03;;;10.00;99.90;;;;;;4985241;28;20219;-62
2023/04/29 02:13:27;;;;;;;58.33;29.80;;;10.00;99.90;;;;;;4988905;28;20200;-62
2023/04/29 02:15:56;;;;;;;63.47;31.30;;;9.90;99.90;;;;;;4995955;28;20198;-62
2023/04/29 02:18:24;;;;;;;65.33;30.97;;;10.00;99.90;;;;;;4990806;28;20313;-61
2023/04/29 02:21:00;;;;;;;59.70;30.43;;;9.90;99.90;;;;;;4991514;28;20215;-62
2023/04/29 02:23:30;;;;;;;65.13;31.10;;;9.90;99.90;;;;;;4987048;28;20210;-62
2023/04/29 02:25:58;;;;;;;63.73;31.53;;;9.90;99.90;;;;;;4985870;28;20227;-62
2023/04/29 02:28:27;;;;;;;57.63;28.70;;;9.90;99.90;;;;;;4983950;28;20526;-58
2023/04/29 02:30:56;;;;;;;54.80;26.40;;;9.80;99.90;;;;;;4987709;28;20199;-62
2023/04/29 02:33:24;;;;;;;54.67;27.30;;;9.80;99.90;;;;;;4988709;28;20231;-61
2023/04/29 02:35:52;;;;;;;53.40;26.73;;;9.80;99.90;;;;;;4984657;28;20272;-62
2023/04/29 02:38:20;;;;;;;59.57;26.33;;;9.80;99.90;;;;;;4981312;28;20231;-61
2023/04/29 02:40:49;;;;;;;59.37;27.57;;;9.80;99.90;;;;;;4970539;28;20227;-62
2023/04/29 02:43:17;;;;;;;64.73;28.77;;;9.80;99.90;;;;;;4986109;28;20662;-62
2023/04/29 02:45:47;;;;;;;64.93;28.97;;;9.80;99.90;;;;;;4986423;28;20637;-62
2023/04/29 02:48:15;;;;;;;64.50;27.23;;;9.80;99.90;;;;;;4964872;28;20218;-62
2023/04/29 02:50:43;;;;;;;73.27;30.60;;;9.80;99.90;;;;;;5000689;28;20229;-62
2023/04/29 02:53:12;;;;;;;71.57;30.40;;;9.80;99.90;;;;;;4991959;28;20313;-61
2023/04/29 02:55:40;;;;;;;65.23;28.77;;;9.80;99.90;;;;;;4986059;28;20194;-62
2023/04/29 02:58:08;;;;;;;56.40;26.40;;;9.80;99.90;;;;;;4987945;28;20213;-61
2023/04/29 03:00:37;;;;;;;54.90;27.70;;;9.80;99.90;;;;;;4992546;28;20273;-62
2023/04/29 03:03:06;;;;;;;49.70;25.93;;;9.80;99.90;;;;;;4992146;28;20222;-62
2023/04/29 03:05:35;;;;;;;49.70;25.20;;;9.80;99.90;;;;;;4991918;28;20314;-62
2023/04/29 03:08:04;;;;;;;50.67;24.33;;;9.80;99.90;;;;;;4987512;28;20298;-62
2023/04/29 03:10:32;;;;;;;43.47;23.83;;;9.80;99.90;;;;;;4982388;28;20202;-61
2023/04/29 03:13:00;;;;;;;39.77;22.00;;;9.70;99.90;;;;;;4993470;28;20206;-62
2023/04/29 03:15:28;;;;;;;40.07;22.10;;;9.70;99.90;;;;;;4982214;28;20270;-61
2023/04/29 03:17:58;;;;;;;42.57;22.80;;;9.80;99.90;;;;;;4985695;28;20215;-62
2023/04/29 03:20:28;;;;;;;39.13;21.83;;;9.70;99.90;;;;;;4989188;28;20230;-62
2023/04/29 03:22:57;;;;;;;39.27;22.07;;;9.70;99.90;;;;;;4990049;28;20277;-62
2023/04/29 03:25:25;;;;;;;39.33;22.03;;;9.70;99.90;;;;;;4998405;28;20213;-62
2023/04/29 03:27:53;;;;;;;37.60;21.23;;;9.70;99.90;;;;;;4986748;28;20665;-62
2023/04/29 03:30:22;;;;;;;34.40;20.80;;;9.70;99.90;;;;;;4984654;28;20220;-62
2023/04/29 03:32:50;;;;;;;38.33;21.27;;;9.70;99.90;;;;;;4985289;28;20285;-62
2023/04/29 03:35:18;;;;;;;40.03;22.43;;;9.70;99.90;;;;;;4985274;28;20254;-62
2023/04/29 03:37:48;;;;;;;43.50;21.83;;;9.70;99.90;;;;;;4993319;28;20233;-62
2023/04/29 03:40:16;;;;;;;42.23;21.03;;;9.70;99.90;;;;;;4987358;28;20604;-62
2023/04/29 03:42:44;;;;;;;35.27;20.80;;;9.60;99.90;;;;;;4983705;28;20227;-62
2023/04/29 03:45:13;;;;;;;32.53;20.27;;;9.60;99.90;;;;;;4986776;28;20539;-62
2023/04/29 03:47:42;;;;;;;39.07;21.30;;;9.60;99.90;;;;;;4989649;28;20219;-62
2023/04/29 03:50:10;;;;;;;36.27;21.70;;;9.60;99.90;;;;;;4989411;28;20261;-62
2023/04/29 03:52:39;;;;;;;42.07;21.97;;;9.70;99.90;;;;;;4994496;28;20665;-61
2023/04/29 03:55:10;;;;;;;40.27;21.10;;;9.70;99.90;;;;;;4991919;28;20191;-62
2023/04/29 03:57:38;;;;;;;38.57;22.33;;;9.70;99.90;;;;;;4992103;28;20230;-62
2023/04/29 04:00:10;;;;;;;36.13;21.07;;;9.70;99.90;;;;;;4994328;28;20246;-62
2023/04/29 04:02:38;;;;;;;40.67;21.73;;;9.70;99.90;;;;;;4996101;28;20569;-62
2023/04/29 04:05:07;;;;;;;39.87;21.60;;;9.60;99.90;;;;;;4996014;28;20623;-62
2023/04/29 04:07:35;;;;;;;41.00;21.17;;;9.60;99.90;;;;;;4998383;28;20195;-61
2023/04/29 04:10:04;;;;;;;37.37;21.30;;;9.60;99.90;;;;;;4992592;28;20222;-62
2023/04/29 04:12:34;;;;;;;35.33;21.90;;;9.60;99.90;;;;;;4998730;28;20273;-62
2023/04/29 04:15:03;;;;;;;36.47;21.23;;;9.60;99.90;;;;;;4996422;28;20264;-62
2023/04/29 04:17:31;;;;;;;43.03;22.13;;;9.60;99.90;;;;;;4982042;28;20229;-62
2023/04/29 04:19:59;;;;;;;42.90;21.70;;;9.60;99.90;;;;;;4992880;28;20317;-61
2023/04/29 04:22:28;;;;;;;42.73;21.80;;;9.60;99.90;;;;;;4986479;28;20194;-61
2023/04/29 04:24:56;;;;;;;48.17;22.73;;;9.50;99.90;;;;;;4973063;28;20715;-62
2023/04/29 04:27:24;;;;;;;40.83;21.97;;;9.60;99.90;;;;;;4991863;28;20218;-63
2023/04/29 04:29:55;;;;;;;36.83;19.77;;;9.60;99.90;;;;;;4984111;28;20635;-62
2023/04/29 04:32:23;;;;;;;44.00;20.07;;;9.50;99.90;;;;;;5002093;28;20226;-62
2023/04/29 04:34:51;;;;;;;35.57;20.47;;;9.50;99.90;;;;;;4991701;28;20802;-62
2023/04/29 04:37:20;;;;;;;32.23;18.10;;;9.50;99.90;;;;;;4992491;28;20229;-62
2023/04/29 04:39:48;;;;;;;31.03;17.73;;;9.50;99.90;;;;;;4986197;28;20279;-64
2023/04/29 04:42:16;;;;;;;27.87;16.30;;;9.50;99.90;;;;;;4997402;28;20723;-62
2023/04/29 04:44:45;;;;;;;31.07;16.73;;;9.50;99.90;;;;;;4971776;28;20227;-62
2023/04/29 04:47:15;;;;;;;25.60;15.13;;;9.50;99.90;;;;;;4992151;28;20677;-61
2023/04/29 04:49:43;;;;;;;28.33;16.30;;;9.40;99.90;;;;;;4986435;28;20237;-64
2023/04/29 04:52:11;;;;;;;28.33;15.50;;;9.40;99.90;;;;;;4995072;28;20255;-62
2023/04/29 04:54:39;;;;;;;25.50;16.20;;;9.40;99.90;;;;;;4994513;28;20273;-62
2023/04/29 04:57:07;;;;;;;27.00;15.63;;;9.40;99.90;;;;;;4992261;28;21011;-62
2023/04/29 04:59:36;;;;;;;28.40;16.27;;;9.40;99.90;;;;;;4984019;28;20238;-62
2023/04/29 05:02:04;;;;;;;27.77;16.13;;;9.40;99.90;;;;;;4982490;28;20218;-62
2023/04/29 05:04:34;;;;;;;25.40;16.03;;;9.30;99.90;;;;;;4993440;28;20230;-61
2023/04/29 05:07:02;;;;;;;26.57;15.17;;;9.30;99.90;;;;;;4989310;28;20215;-61
2023/04/29 05:09:31;;;;;;;24.03;15.50;;;9.30;99.90;;;;;;4990932;28;20251;-61
2023/04/29 05:12:00;;;;;;;30.93;16.40;;;9.30;99.90;;;;;;4989665;28;20218;-62
2023/04/29 05:14:28;;;;;;;28.73;16.67;;;9.30;99.90;;;;;;4996640;28;20318;-62
2023/04/29 05:16:59;;;;;;;32.40;17.63;;;9.30;99.90;;;;;;4987957;28;20269;-62
2023/04/29 05:19:27;;;;;;;26.93;16.90;;;9.30;99.90;;;;;;4984353;28;20256;-61
2023/04/29 05:21:57;;;;;;;29.30;17.63;;;9.30;99.90;;;;;;4986569;28;20199;-62
2023/04/29 05:24:25;;;;;;;32.03;18.87;;;9.30;99.90;;;;;;4990901;28;20673;-62
2023/04/29 05:26:53;;;;;;;30.27;18.93;;;9.30;99.90;;;;;;4971103;28;20227;-62
2023/04/29 05:29:21;;;;;;;30.53;18.93;;;9.30;99.90;;;;;;4978054;28;20222;-62
2023/04/29 05:31:50;;;;;;;28.33;17.37;;;9.30;99.90;;;;;;4987476;28;20239;-62
2023/04/29 05:34:18;;;;;;;28.80;18.47;;;9.30;99.90;;;;;;4992053;28;20195;-62
2023/04/29 05:36:46;;;;;;;26.93;18.40;;;9.20;99.90;;;;;;4972386;28;20219;-62
2023/04/29 05:39:16;;;;;;;33.67;18.03;;;9.20;99.90;;;;;;4975419;28;20281;-62
2023/04/29 05:41:44;;;;;;;28.60;16.77;;;9.30;99.90;;;;;;4988744;28;20229;-62
2023/04/29 05:44:13;;;;;;;26.47;16.10;;;9.30;99.90;;;;;;4989340;28;20219;-62
2023/04/29 05:46:41;;;;;;;24.67;15.67;;;9.20;99.90;;;;;;4988280;28;20216;-62
2023/04/29 05:49:09;;;;;;;28.03;16.03;;;9.20;99.90;;;;;;4981712;28;20249;-62
2023/04/29 05:51:38;;;;;;;24.80;15.90;;;9.20;99.90;;;;;;4983320;28;20253;-62
2023/04/29 05:54:06;;;;;;;31.40;16.53;;;9.10;99.90;;;;;;4987350;28;20235;-62
2023/04/29 05:56:35;;;;;;;24.73;16.33;;;9.10;99.90;;;;;;4983679;28;20219;-62
2023/04/29 05:59:04;;;;;;;26.53;16.27;;;9.10;99.90;;;;;;4988492;28;20264;-62
2023/04/29 06:01:32;;;;;;;30.03;17.33;;;9.20;99.90;;;;;;4984149;28;20195;-62
2023/04/29 06:04:01;;;;;;;28.13;16.67;;;9.20;99.90;;;;;;4971767;28;20221;-62
2023/04/29 06:06:29;;;;;;;27.83;16.43;;;9.20;99.90;;;;;;4979713;28;20231;-62
2023/04/29 06:09:00;;;;;;;29.80;17.13;;;9.20;99.90;;;;;;4973101;28;20713;-62
2023/04/29 06:11:28;;;;;;;29.50;17.63;;;9.20;99.90;;;;;;4984331;28;20297;-62
2023/04/29 06:13:57;;;;;;;33.87;17.37;;;9.20;99.90;;;;;;4986613;28;20252;-62
2023/04/29 06:16:26;;;;;;;31.03;17.77;;;9.20;99.90;;;;;;4980137;28;20246;-61
2023/04/29 06:18:54;;;;;;;29.27;17.47;;;9.10;99.90;;;;;;4968896;28;20249;-61
2023/04/29 06:21:22;;;;;;;29.00;17.80;;;9.20;99.90;;;;;;4994747;28;20774;-62
2023/04/29 06:23:51;;;;;;;28.53;17.93;;;9.20;99.90;;;;;;4987484;28;20632;-63
2023/04/29 06:26:20;;;;;;;25.83;17.80;;;9.20;99.90;;;;;;4990721;28;20260;-64
2023/04/29 06:28:48;;;;;;;31.10;18.23;;;9.20;99.90;;;;;;4981853;28;20739;-64
2023/04/29 06:31:18;;;;;;;27.03;17.10;;;9.30;99.90;;;;;;4984523;28;20190;-63
2023/04/29 06:33:50;;;;;;;31.13;18.20;;;9.30;99.90;;;;;;4982690;28;20219;-63
2023/04/29 06:36:18;;;;;;;29.17;17.57;;;9.30;99.90;;;;;;4982254;28;20547;-63
2023/04/29 06:38:46;;;;;;;28.80;17.73;;;9.40;99.90;;;;;;4981948;28;20601;-63
2023/04/29 06:41:14;;;;;;;30.93;17.80;;;9.40;99.90;;;;;;4974920;28;20259;-63
2023/04/29 06:43:43;;;;;;;27.87;17.93;;;9.40;99.90;;;;;;4990612;28;20222;-63
2023/04/29 06:46:13;;;;;;;29.30;17.67;;;9.50;99.90;;;;;;4981100;28;20228;-64
2023/04/29 06:48:43;;;;;;;24.47;16.13;;;9.50;99.90;;;;;;4967342;28;20318;-63
2023/04/29 06:51:11;;;;;;;29.33;17.53;;;9.60;99.90;;;;;;4976117;28;20307;-63
2023/04/29 06:53:39;;;;;;;27.27;17.30;;;9.60;99.90;;;;;;4988426;28;20701;-63
2023/04/29 06:56:08;;;;;;;32.80;18.63;;;9.70;99.90;;;;;;4991175;28;20271;-63
2023/04/29 06:58:37;;;;;;;27.07;17.70;;;9.70;99.90;;;;;;4982258;28;20188;-63
2023/04/29 07:01:07;;;;;;;29.53;17.97;;;9.80;99.90;;;;;;4979055;28;20203;-63
2023/04/29 07:03:35;;;;;;;23.60;17.33;;;9.80;99.90;;;;;;4980762;28;20690;-63
2023/04/29 07:06:05;;;;;;;29.50;18.57;;;9.80;99.90;;;;;;4968822;28;20259;-63
2023/04/29 07:08:34;;;;;;;35.60;19.13;;;9.80;99.90;;;;;;4969080;28;20223;-63
2023/04/29 07:11:03;;;;;;;27.97;17.57;;;9.80;99.90;;;;;;4962367;28;20239;-63
2023/04/29 07:13:31;;;;;;;29.87;18.73;;;9.80;99.90;;;;;;4975739;28;20218;-63
2023/04/29 07:15:59;;;;;;;27.43;17.80;;;9.80;99.90;;;;;;4968992;28;20195;-63
2023/04/29 07:18:28;;;;;;;31.77;18.73;;;9.90;99.90;;;;;;4976064;28;20223;-63
2023/04/29 07:21:01;;;;;;;33.57;18.07;;;10.00;99.90;;;;;;4972270;28;20712;-63
2023/04/29 07:23:31;;;;;;;30.77;17.13;;;10.00;99.90;;;;;;4968138;28;20278;-63
2023/04/29 07:25:59;;;;;;;31.43;17.60;;;10.10;99.90;;;;;;4971147;28;20334;-63
2023/04/29 07:28:27;;;;;;;28.80;18.27;;;10.10;99.90;;;;;;4978389;28;20689;-62
2023/04/29 07:30:55;;;;;;;25.67;17.30;;;10.20;99.90;;;;;;4976610;28;20183;-63
2023/04/29 07:33:24;;;;;;;25.87;17.20;;;10.30;99.90;;;;;;4977064;28;20262;-64
2023/04/29 07:35:53;;;;;;;31.53;17.80;;;10.30;99.90;;;;;;4975184;28;20227;-63
2023/04/29 07:38:21;;;;;;;24.40;17.03;;;10.50;99.90;;;;;;4981320;28;20221;-63
2023/04/29 07:40:51;;;;;;;28.10;17.17;;;10.50;99.90;;;;;;4973475;28;20223;-63
2023/04/29 07:43:19;;;;;;;30.13;17.33;;;10.50;99.90;;;;;;4973020;28;20207;-63
2023/04/29 07:45:47;;;;;;;29.43;18.33;;;10.60;99.90;;;;;;4975904;28;20274;-63
2023/04/29 07:48:16;;;;;;;26.17;17.47;;;10.60;99.90;;;;;;4976395;28;20318;-63
2023/04/29 07:50:44;;;;;;;28.70;16.37;;;10.60;99.90;;;;;;4964334;28;20262;-63
2023/04/29 07:53:12;;;;;;;38.53;17.07;;;10.60;99.90;;;;;;4968143;28;20223;-63
2023/04/29 07:55:42;;;;;;;30.03;16.30;;;10.70;99.90;;;;;;4967107;28;20199;-63
2023/04/29 07:58:11;;;;;;;27.70;16.50;;;10.80;99.90;;;;;;4977035;28;20270;-63
2023/04/29 08:00:39;;;;;;;28.13;16.87;;;11.00;99.90;;;;;;4971618;28;20243;-64
2023/04/29 08:03:08;;;;;;;32.77;17.50;;;11.00;99.90;;;;;;4966712;28;20227;-64
2023/04/29 08:05:36;;;;;;;25.53;16.93;;;11.10;99.90;;;;;;4989509;28;20322;-63
2023/04/29 08:08:05;;;;;;;27.63;16.30;;;11.20;99.90;;;;;;4976809;28;20230;-63
2023/04/29 08:10:39;;;;;;;24.40;15.87;;;11.20;99.90;;;;;;5000996;28;20237;-63
2023/04/29 08:13:08;;;;;;;27.60;17.13;;;11.20;99.90;;;;;;4990643;28;20187;-63
2023/04/29 08:15:38;;;;;;;28.23;16.23;;;11.40;99.90;;;;;;4990639;28;20554;-63
2023/04/29 08:18:06;;;;;;;26.10;16.07;;;11.50;99.90;;;;;;4994121;28;20211;-63
2023/04/29 08:20:34;;;;;;;27.90;15.77;;;11.60;99.90;;;;;;4999689;28;20219;-63
2023/04/29 08:23:03;;;;;;;26.80;17.03;;;11.70;99.90;;;;;;4997299;28;20678;-63
2023/04/29 08:25:31;;;;;;;24.93;15.90;;;12.00;99.90;;;;;;4972529;28;20198;-63
2023/04/29 08:27:59;;;;;;;27.53;16.07;;;12.20;99.90;;;;;;4989933;28;20281;-64
2023/04/29 08:30:28;;;;;;;22.27;15.93;;;12.40;99.90;;;;;;4990128;28;20250;-63
2023/04/29 08:32:57;;;;;;;23.10;15.10;;;12.60;99.90;;;;;;4987459;28;20219;-64
2023/04/29 08:35:26;;;;;;;21.57;14.50;;;12.70;99.90;;;;;;4987478;28;20223;-63
2023/04/29 08:37:57;;;;;;;27.40;14.57;;;12.90;99.90;;;;;;4995447;28;20272;-63
2023/04/29 08:40:25;;;;;;;23.43;14.70;;;13.30;99.90;;;;;;4988271;28;20579;-63
2023/04/29 08:42:54;;;;;;;22.77;14.80;;;13.50;99.90;;;;;;4994357;28;20211;-63
2023/04/29 08:45:24;;;;;;;24.33;15.00;;;13.70;99.90;;;;;;4996403;28;20227;-64
2023/04/29 08:47:53;;;;;;;23.23;14.93;;;13.50;99.90;;;;;;4989069;28;20788;-64
2023/04/29 08:50:24;;;;;;;25.43;14.90;;;13.40;99.90;;;;;;4996045;28;20266;-64
2023/04/29 08:52:53;;;;;;;21.20;15.30;;;13.30;99.90;;;;;;4993214;28;20293;-64
2023/04/29 08:55:21;;;;;;;25.43;15.67;;;13.50;99.90;;;;;;4999324;28;20638;-63
2023/04/29 08:57:50;;;;;;;26.30;15.87;;;13.40;99.90;;;;;;4989002;28;20243;-64
2023/04/29 09:00:19;;;;;;;26.40;16.57;;;13.30;99.90;;;;;;4991506;28;20217;-63
2023/04/29 09:02:50;;;;;;;27.37;15.83;;;13.00;99.90;;;;;;4994533;28;20311;-63
2023/04/29 09:05:19;;;;;;;29.87;16.70;;;12.90;99.90;;;;;;4995474;28;20313;-63
2023/04/29 09:07:50;;;;;;;26.63;16.57;;;12.90;99.90;;;;;;4991321;28;20644;-63
2023/04/29 09:10:19;;;;;;;21.67;15.83;;;12.90;99.90;;;;;;4986448;28;20199;-64
2023/04/29 09:12:47;;;;;;;24.00;16.13;;;12.90;99.90;;;;;;4994617;28;20227;-63
2023/04/29 09:15:15;;;;;;;25.43;16.23;;;12.80;99.90;;;;;;4995178;28;20227;-63
2023/04/29 09:17:46;;;;;;;27.17;16.70;;;12.90;99.90;;;;;;4986893;28;20273;-63
2023/04/29 09:20:27;;;;;;;22.03;15.53;;;12.90;99.90;;;;;;4988925;28;20321;-63
2023/04/29 09:23:00;;;;;;;24.00;15.17;;;12.70;99.90;;;;;;4990576;28;20684;-63
2023/04/29 09:25:28;;;;;;;24.13;15.40;;;12.80;99.90;;;;;;4978646;28;20195;-63
2023/04/29 09:27:56;;;;;;;25.07;16.00;;;12.90;99.90;;;;;;4977207;28;20223;-63
2023/04/29 09:30:25;;;;;;;22.87;16.67;;;12.90;99.90;;;;;;4997193;28;20262;-63
2023/04/29 09:33:12;;;;;;;26.83;16.67;;;12.90;99.90;;;;;;4990443;28;20245;-64
2023/04/29 09:35:41;;;;;;;21.93;15.43;;;13.10;99.90;;;;;;4992936;28;20716;-63
2023/04/29 09:38:13;;;;;;;25.97;15.83;;;13.10;99.90;;;;;;4996252;28;20633;-63
2023/04/29 09:40:42;;;;;;;22.70;15.53;;;13.00;99.90;;;;;;4998846;28;20653;-64
2023/04/29 09:43:26;;;;;;;27.10;14.83;;;13.00;99.90;;;;;;5005499;28;20196;-61
2023/04/29 09:45:55;;;;;;;20.10;14.53;;;13.10;99.90;;;;;;4984193;28;20226;-63
2023/04/29 09:48:32;;;;;;;23.27;15.63;;;13.10;99.90;;;;;;4996386;28;20245;-63
2023/04/29 09:51:02;;;;;;;20.87;15.10;;;13.20;99.90;;;;;;4991596;28;20230;-63
2023/04/29 09:53:36;;;;;;;18.70;14.50;;;13.10;99.90;;;;;;4993533;28;20241;-64
2023/04/29 09:56:06;;;;;;;23.70;14.77;;;13.20;99.90;;;;;;4991189;28;20286;-63
2023/04/29 09:58:36;;;;;;;21.83;15.40;;;13.30;99.90;;;;;;5001475;28;20245;-63
2023/04/29 10:01:06;;;;;;;22.77;15.63;;;13.10;99.90;;;;;;4996274;28;20213;-63
2023/04/29 10:03:36;;;;;;;24.97;14.97;;;13.00;99.90;;;;;;4994932;28;20673;-63
2023/04/29 10:06:10;;;;;;;21.73;14.73;;;12.90;99.90;;;;;;4974733;28;20761;-63
2023/04/29 10:08:41;;;;;;;20.57;15.70;;;12.90;99.90;;;;;;4961625;28;20641;-64
2023/04/29 10:11:11;;;;;;;20.97;15.20;;;13.00;99.90;;;;;;4969018;28;20251;-63
2023/04/29 10:13:43;;;;;;;20.77;16.07;;;13.10;99.90;;;;;;4968692;28;20744;-63
2023/04/29 10:16:28;;;;;;;23.87;15.43;;;13.20;99.90;;;;;;4973589;28;20699;-63
2023/04/29 10:19:02;;;;;;;23.47;15.37;;;13.30;99.90;;;;;;4967985;28;20301;-63
2023/04/29 10:21:31;;;;;;;27.93;15.17;;;13.30;99.90;;;;;;4970213;28;20566;-63
2023/04/29 10:24:03;;;;;;;25.33;15.40;;;13.50;99.90;;;;;;4970054;28;20624;-63
2023/04/29 10:26:35;;;;;;;21.13;15.43;;;13.80;99.90;;;;;;4968087;28;20680;-63
2023/04/29 10:29:07;;;;;;;21.00;14.03;;;14.20;99.90;;;;;;4964525;28;20243;-63
2023/04/29 10:31:36;;;;;;;20.33;14.37;;;14.70;99.90;;;;;;4974648;28;20214;-63
2023/04/29 10:34:04;;;;;;;22.10;14.70;;;15.00;99.90;;;;;;4974530;28;20271;-63
2023/04/29 10:36:34;;;;;;;23.50;14.37;;;15.20;99.90;;;;;;4975759;28;20224;-63
2023/04/29 10:39:09;;;;;;;20.87;13.87;;;15.20;99.90;;;;;;4969432;28;20271;-63
2023/04/29 10:41:45;;;;;;;19.77;15.27;;;14.90;99.90;;;;;;4967082;28;20217;-63
2023/04/29 10:44:15;;;;;;;18.50;14.53;;;14.80;99.90;;;;;;4965134;28;20220;-63
2023/04/29 10:46:44;;;;;;;18.17;13.90;;;14.60;99.90;;;;;;4966311;28;20226;-64
2023/04/29 10:49:12;;;;;;;19.17;14.17;;;14.50;99.90;;;;;;4966919;28;20199;-63
2023/04/29 10:51:43;;;;;;;16.87;14.33;;;14.50;99.90;;;;;;4960608;28;20280;-63
2023/04/29 10:54:15;;;;;;;19.03;15.30;;;14.40;99.90;;;;;;4966552;28;20265;-63
2023/04/29 10:56:48;;;;;;;19.10;14.60;;;14.40;99.90;;;;;;4965844;28;20718;-63
2023/04/29 10:59:19;;;;;;;17.83;13.20;;;14.40;99.90;;;;;;4964119;28;20298;-63
2023/04/29 11:01:50;;;;;;;16.40;13.03;;;14.40;99.90;;;;;;4970107;28;20236;-63
2023/04/29 11:04:20;;;;;;;16.57;13.30;;;14.60;99.90;;;;;;4970502;28;20291;-63
2023/04/29 11:06:53;;;;;;;16.13;12.67;;;14.90;99.90;;;;;;4991900;28;20242;-63
2023/04/29 11:09:27;;;;;;;15.43;11.97;;;15.10;99.90;;;;;;4967706;28;20307;-63
2023/04/29 11:12:05;;;;;;;14.83;11.70;;;15.40;99.90;;;;;;4986456;28;20242;-64
2023/04/29 11:14:36;;;;;;;15.63;11.87;;;15.60;99.90;;;;;;4965101;28;20236;-63
2023/04/29 11:17:08;;;;;;;14.80;12.00;;;15.30;99.90;;;;;;4987424;28;20573;-63
2023/04/29 11:19:41;;;;;;;16.43;12.27;;;15.20;99.90;;;;;;4988277;28;20250;-63
2023/04/29 11:22:26;;;;;;;15.70;11.80;;;15.10;99.90;;;;;;4989221;28;20243;-63
2023/04/29 11:24:59;;;;;;;18.37;12.23;;;15.00;99.90;;;;;;4983343;28;20224;-63
2023/04/29 11:27:30;;;;;;;14.93;11.97;;;15.10;99.90;;;;;;4983729;28;20582;-63
2023/04/29 11:29:59;;;;;;;14.33;11.73;;;15.10;99.90;;;;;;4981974;28;20262;-63
2023/04/29 11:32:28;;;;;;;13.30;11.80;;;15.20;99.90;;;;;;4989314;28;20310;-63
2023/04/29 11:35:08;;;;;;;20.10;13.33;;;15.40;99.90;;;;;;4998082;28;20278;-63
2023/04/29 11:37:36;;;;;;;15.80;13.03;;;15.60;99.90;;;;;;4989291;28;20190;-63
2023/04/29 11:40:09;;;;;;;13.80;11.87;;;15.80;99.90;;;;;;4987785;28;20256;-63
2023/04/29 11:42:41;;;;;;;15.83;12.03;;;16.00;99.90;;;;;;4977693;28;20280;-63
2023/04/29 11:45:11;;;;;;;17.17;12.20;;;16.10;99.90;;;;;;4980533;28;20238;-63
2023/04/29 11:47:43;;;;;;;13.60;11.60;;;16.20;99.90;;;;;;4984097;28;20227;-63
2023/04/29 11:50:14;;;;;;;15.20;12.50;;;16.40;99.90;;;;;;4990591;28;20244;-63
2023/04/29 11:52:43;;;;;;;16.13;12.43;;;16.40;99.90;;;;;;4987692;28;20705;-63
2023/04/29 11:55:13;;;;;;;18.63;13.03;;;16.50;99.90;;;;;;4991447;28;20220;-63
2023/04/29 11:57:41;;;;;;;15.47;13.00;;;16.60;99.90;;;;;;4991054;28;20225;-63
2023/04/29 12:00:11;;;;;;;13.30;11.90;;;16.60;99.90;;;;;;4990571;28;20223;-63
2023/04/29 12:02:43;;;;;;;12.97;11.37;;;16.50;99.90;;;;;;4997062;28;20291;-63
2023/04/29 12:05:14;;;;;;;13.13;11.57;;;16.00;99.90;;;;;;4986105;28;20232;-63
2023/04/29 12:07:43;;;;;;;16.97;12.30;;;15.80;99.90;;;;;;4989716;28;20200;-63
2023/04/29 12:10:13;;;;;;;16.60;12.33;;;15.90;99.90;;;;;;4992282;28;20213;-64
2023/04/29 12:12:42;;;;;;;15.13;13.30;;;16.00;99.90;;;;;;4991397;28;20212;-63
2023/04/29 12:15:11;;;;;;;17.00;12.70;;;16.10;99.90;;;;;;5000092;28;20230;-63
2023/04/29 12:17:40;;;;;;;18.40;12.57;;;16.00;99.90;;;;;;4991990;28;20321;-63
2023/04/29 12:20:11;;;;;;;16.93;13.43;;;16.10;99.90;;;;;;4995558;28;20234;-63
2023/04/29 12:22:39;;;;;;;14.27;12.70;;;16.20;99.90;;;;;;4985757;28;20273;-63
2023/04/29 12:25:09;;;;;;;17.80;13.60;;;16.30;99.90;;;;;;4994958;28;20407;-63
2023/04/29 12:27:41;;;;;;;14.20;12.70;;;16.40;99.90;;;;;;4984755;28;20215;-63
2023/04/29 12:30:10;;;;;;;14.60;12.70;;;16.40;99.90;;;;;;4983330;28;20596;-64
2023/04/29 12:32:38;;;;;;;15.23;12.60;;;16.50;99.90;;;;;;4970902;28;20221;-64
2023/04/29 12:35:15;;;;;;;15.57;12.13;;;16.60;99.90;;;;;;4990225;28;20246;-63
2023/04/29 12:37:47;;;;;;;16.30;12.77;;;16.80;99.90;;;;;;4989139;28;20802;-63
2023/04/29 12:40:19;;;;;;;19.57;13.20;;;17.00;99.90;;;;;;4987761;28;20253;-63
2023/04/29 12:42:49;;;;;;;15.50;13.57;;;17.20;99.90;;;;;;4988168;28;20230;-63
2023/04/29 12:45:28;;;;;;;15.57;12.30;;;17.00;99.90;;;;;;4985017;28;20602;-63
2023/04/29 12:47:57;;;;;;;14.20;12.67;;;16.90;99.90;;;;;;4984354;28;20230;-60